sensor_id;sensor_type;location;lat;lon;timestamp;temperature;humidity
13186;DHT22;6658;53.080;7.428;2022-11-20T00:00:12;0.50;99.90
13186;DHT22;6658;53.080;7.428;2022-11-20T00:02:37;0.50;99.90
13186;DHT22;6658;53.080;7.428;2022-11-20T00:05:03;0.50;99.90
13186;DHT22;6658;53.080;7.428;2022-11-20T00:07:29;0.50;99.90
13186;DHT22;6658;53.080;7.428;2022-11-20T00:09:55;0.60;99.90
13186;DHT22;6658;53.080;7.428;2022-11-20T00:12:20;0.60;99.90
13186;DHT22;6658;53.080;7.428;2022-11-20T00:14:46;0.60;99.90
13186;DHT22;6658;53.080;7.428;2022-11-20T00:17:11;0.60;99.90
13186;DHT22;6658;53.080;7.428;2022-11-20T00:19:37;0.60;99.90
13186;DHT22;6658;53.080;7.428;2022-11-20T00:22:03;0.60;99.90
13186;DHT22;6658;53.080;7.428;2022-11-20T00:24:28;0.60;99.90
13186;DHT22;6658;53.080;7.428;2022-11-20T00:26:54;0.60;99.90
13186;DHT22;6658;53.080;7.428;2022-11-20T00:29:20;0.60;99.90
13186;DHT22;6658;53.080;7.428;2022-11-20T00:31:45;0.60;99.90
13186;DHT22;6658;53.080;7.428;2022-11-20T00:34:11;0.60;99.90
13186;DHT22;6658;53.080;7.428;2022-11-20T00:36:37;0.60;99.90
13186;DHT22;6658;53.080;7.428;2022-11-20T00:39:03;0.60;99.90
13186;DHT22;6658;53.080;7.428;2022-11-20T00:41:29;0.60;99.90
13186;DHT22;6658;53.080;7.428;2022-11-20T00:43:55;0.60;99.90
13186;DHT22;6658;53.080;7.428;2022-11-20T00:46:23;0.70;99.90
13186;DHT22;6658;53.080;7.428;2022-11-20T00:48:49;0.70;99.90
13186;DHT22;6658;53.080;7.428;2022-11-20T00:51:18;0.70;99.90
13186;DHT22;6658;53.080;7.428;2022-11-20T00:53:45;0.70;99.90
13186;DHT22;6658;53.080;7.428;2022-11-20T00:56:12;0.70;99.90
13186;DHT22;6658;53.080;7.428;2022-11-20T00:58:48;0.70;99.90
13186;DHT22;6658;53.080;7.428;2022-11-20T01:01:22;0.70;99.90
13186;DHT22;6658;53.080;7.428;2022-11-20T01:03:52;0.80;99.90
13186;DHT22;6658;53.080;7.428;2022-11-20T01:06:21;0.80;99.90
13186;DHT22;6658;53.080;7.428;2022-11-20T01:08:48;0.80;99.90
13186;DHT22;6658;53.080;7.428;2022-11-20T01:11:19;0.80;99.90
13186;DHT22;6658;53.080;7.428;2022-11-20T01:13:46;0.80;99.90
13186;DHT22;6658;53.080;7.428;2022-11-20T01:16:24;0.80;99.90
13186;DHT22;6658;53.080;7.428;2022-11-20T01:18:53;0.80;99.90
13186;DHT22;6658;53.080;7.428;2022-11-20T01:21:25;0.80;99.90
13186;DHT22;6658;53.080;7.428;2022-11-20T01:23:51;0.90;99.90
13186;DHT22;6658;53.080;7.428;2022-11-20T01:26:21;0.90;99.90
13186;DHT22;6658;53.080;7.428;2022-11-20T01:28:48;0.90;99.90
13186;DHT22;6658;53.080;7.428;2022-11-20T01:31:19;0.90;99.90
13186;DHT22;6658;53.080;7.428;2022-11-20T01:33:46;0.90;99.90
13186;DHT22;6658;53.080;7.428;2022-11-20T01:36:13;0.90;99.90
13186;DHT22;6658;53.080;7.428;2022-11-20T01:38:39;0.90;99.90
13186;DHT22;6658;53.080;7.428;2022-11-20T01:41:06;0.90;99.90
13186;DHT22;6658;53.080;7.428;2022-11-20T01:43:33;0.90;99.90
13186;DHT22;6658;53.080;7.428;2022-11-20T01:46:03;0.90;99.90
13186;DHT22;6658;53.080;7.428;2022-11-20T01:48:52;0.90;99.90
13186;DHT22;6658;53.080;7.428;2022-11-20T01:51:37;1.00;99.90
13186;DHT22;6658;53.080;7.428;2022-11-20T01:54:09;1.00;99.90
13186;DHT22;6658;53.080;7.428;2022-11-20T01:56:38;1.00;99.90
13186;DHT22;6658;53.080;7.428;2022-11-20T01:59:07;1.00;99.90
13186;DHT22;6658;53.080;7.428;2022-11-20T02:01:34;1.00;99.90
13186;DHT22;6658;53.080;7.428;2022-11-20T02:04:00;1.00;99.90
13186;DHT22;6658;53.080;7.428;2022-11-20T02:06:34;1.00;99.90
13186;DHT22;6658;53.080;7.428;2022-11-20T02:09:01;1.00;99.90
13186;DHT22;6658;53.080;7.428;2022-11-20T02:11:26;1.00;99.90
13186;DHT22;6658;53.080;7.428;2022-11-20T02:13:53;1.10;99.90
13186;DHT22;6658;53.080;7.428;2022-11-20T02:16:22;1.10;99.90
13186;DHT22;6658;53.080;7.428;2022-11-20T02:18:49;1.10;99.90
13186;DHT22;6658;53.080;7.428;2022-11-20T02:21:21;1.10;99.90
13186;DHT22;6658;53.080;7.428;2022-11-20T02:24:07;1.10;99.90
13186;DHT22;6658;53.080;7.428;2022-11-20T02:26:40;1.10;99.90
13186;DHT22;6658;53.080;7.428;2022-11-20T02:29:07;1.10;99.90
13186;DHT22;6658;53.080;7.428;2022-11-20T02:31:38;1.20;99.90
13186;DHT22;6658;53.080;7.428;2022-11-20T02:34:05;1.20;99.90
13186;DHT22;6658;53.080;7.428;2022-11-20T02:36:34;1.20;99.90
13186;DHT22;6658;53.080;7.428;2022-11-20T02:39:03;1.20;99.90
13186;DHT22;6658;53.080;7.428;2022-11-20T02:41:36;1.20;99.90
13186;DHT22;6658;53.080;7.428;2022-11-20T02:44:03;1.20;99.90
13186;DHT22;6658;53.080;7.428;2022-11-20T02:46:29;1.20;99.90
13186;DHT22;6658;53.080;7.428;2022-11-20T02:48:55;1.20;99.90
13186;DHT22;6658;53.080;7.428;2022-11-20T02:51:21;1.30;99.90
13186;DHT22;6658;53.080;7.428;2022-11-20T02:53:47;1.20;99.90
13186;DHT22;6658;53.080;7.428;2022-11-20T02:56:13;1.20;99.90
13186;DHT22;6658;53.080;7.428;2022-11-20T02:58:39;1.30;99.90
13186;DHT22;6658;53.080;7.428;2022-11-20T03:01:04;1.20;99.90
13186;DHT22;6658;53.080;7.428;2022-11-20T03:03:30;1.30;99.90
13186;DHT22;6658;53.080;7.428;2022-11-20T03:05:58;1.30;99.90
13186;DHT22;6658;53.080;7.428;2022-11-20T03:08:24;1.30;99.90
13186;DHT22;6658;53.080;7.428;2022-11-20T03:10:50;1.30;99.90
13186;DHT22;6658;53.080;7.428;2022-11-20T03:13:16;1.30;99.90
13186;DHT22;6658;53.080;7.428;2022-11-20T03:15:41;1.30;99.90
13186;DHT22;6658;53.080;7.428;2022-11-20T03:18:07;1.30;99.90
13186;DHT22;6658;53.080;7.428;2022-11-20T03:20:33;1.30;99.90
13186;DHT22;6658;53.080;7.428;2022-11-20T03:22:59;1.30;99.90
13186;DHT22;6658;53.080;7.428;2022-11-20T03:25:25;1.30;99.90
13186;DHT22;6658;53.080;7.428;2022-11-20T03:27:51;1.30;99.90
13186;DHT22;6658;53.080;7.428;2022-11-20T03:30:17;1.30;99.90
13186;DHT22;6658;53.080;7.428;2022-11-20T03:32:43;1.30;99.90
13186;DHT22;6658;53.080;7.428;2022-11-20T03:35:09;1.30;99.90
13186;DHT22;6658;53.080;7.428;2022-11-20T03:37:34;1.30;99.90
13186;DHT22;6658;53.080;7.428;2022-11-20T03:40:00;1.30;99.90
13186;DHT22;6658;53.080;7.428;2022-11-20T03:42:25;1.30;99.90
13186;DHT22;6658;53.080;7.428;2022-11-20T03:45:10;1.30;99.90
13186;DHT22;6658;53.080;7.428;2022-11-20T03:47:36;1.30;99.90
13186;DHT22;6658;53.080;7.428;2022-11-20T03:50:03;1.30;99.90
13186;DHT22;6658;53.080;7.428;2022-11-20T03:52:28;1.30;99.90
13186;DHT22;6658;53.080;7.428;2022-11-20T03:54:54;1.30;99.90
13186;DHT22;6658;53.080;7.428;2022-11-20T03:57:20;1.30;99.90
13186;DHT22;6658;53.080;7.428;2022-11-20T03:59:45;1.30;99.90
13186;DHT22;6658;53.080;7.428;2022-11-20T04:02:11;1.30;99.90
13186;DHT22;6658;53.080;7.428;2022-11-20T04:04:37;1.30;99.90
13186;DHT22;6658;53.080;7.428;2022-11-20T04:07:03;1.30;99.90
13186;DHT22;6658;53.080;7.428;2022-11-20T04:09:28;1.30;99.90
13186;DHT22;6658;53.080;7.428;2022-11-20T04:11:54;1.30;99.90
13186;DHT22;6658;53.080;7.428;2022-11-20T04:14:20;1.30;99.90
13186;DHT22;6658;53.080;7.428;2022-11-20T04:16:45;1.30;99.90
13186;DHT22;6658;53.080;7.428;2022-11-20T04:19:14;1.30;99.90
13186;DHT22;6658;53.080;7.428;2022-11-20T04:21:40;1.30;99.90
13186;DHT22;6658;53.080;7.428;2022-11-20T04:24:06;1.30;99.90
13186;DHT22;6658;53.080;7.428;2022-11-20T04:26:33;1.30;99.90
13186;DHT22;6658;53.080;7.428;2022-11-20T04:28:59;1.30;99.90
13186;DHT22;6658;53.080;7.428;2022-11-20T04:31:29;1.30;99.90
13186;DHT22;6658;53.080;7.428;2022-11-20T04:33:55;1.30;99.90
13186;DHT22;6658;53.080;7.428;2022-11-20T04:36:26;1.30;99.90
13186;DHT22;6658;53.080;7.428;2022-11-20T04:38:56;1.30;99.90
13186;DHT22;6658;53.080;7.428;2022-11-20T04:41:27;1.30;99.90
13186;DHT22;6658;53.080;7.428;2022-11-20T04:43:56;1.30;99.90
13186;DHT22;6658;53.080;7.428;2022-11-20T04:46:25;1.30;99.90
13186;DHT22;6658;53.080;7.428;2022-11-20T04:48:51;1.30;99.90
13186;DHT22;6658;53.080;7.428;2022-11-20T04:51:17;1.20;99.90
13186;DHT22;6658;53.080;7.428;2022-11-20T04:53:43;1.20;99.90
13186;DHT22;6658;53.080;7.428;2022-11-20T04:56:10;1.20;99.90
13186;DHT22;6658;53.080;7.428;2022-11-20T04:58:37;1.20;99.90
13186;DHT22;6658;53.080;7.428;2022-11-20T05:01:06;1.30;99.90
13186;DHT22;6658;53.080;7.428;2022-11-20T05:03:32;1.20;99.90
13186;DHT22;6658;53.080;7.428;2022-11-20T05:06:02;1.20;99.90
13186;DHT22;6658;53.080;7.428;2022-11-20T05:08:29;1.20;99.90
13186;DHT22;6658;53.080;7.428;2022-11-20T05:11:03;1.30;99.90
13186;DHT22;6658;53.080;7.428;2022-11-20T05:13:29;1.20;99.90
13186;DHT22;6658;53.080;7.428;2022-11-20T05:15:55;1.20;99.90
13186;DHT22;6658;53.080;7.428;2022-11-20T05:18:20;1.30;99.90
13186;DHT22;6658;53.080;7.428;2022-11-20T05:20:46;1.30;99.90
13186;DHT22;6658;53.080;7.428;2022-11-20T05:23:12;1.30;99.90
13186;DHT22;6658;53.080;7.428;2022-11-20T05:25:37;1.20;99.90
13186;DHT22;6658;53.080;7.428;2022-11-20T05:28:03;1.20;99.90
13186;DHT22;6658;53.080;7.428;2022-11-20T05:30:29;1.30;99.90
13186;DHT22;6658;53.080;7.428;2022-11-20T05:32:54;1.30;99.90
13186;DHT22;6658;53.080;7.428;2022-11-20T05:35:20;1.30;99.90
13186;DHT22;6658;53.080;7.428;2022-11-20T05:37:46;1.30;99.90
13186;DHT22;6658;53.080;7.428;2022-11-20T05:40:12;1.30;99.90
13186;DHT22;6658;53.080;7.428;2022-11-20T05:42:37;1.30;99.90
13186;DHT22;6658;53.080;7.428;2022-11-20T05:45:04;1.30;99.90
13186;DHT22;6658;53.080;7.428;2022-11-20T05:47:33;1.30;99.90
13186;DHT22;6658;53.080;7.428;2022-11-20T05:49:59;1.30;99.90
13186;DHT22;6658;53.080;7.428;2022-11-20T05:52:28;1.30;99.90
13186;DHT22;6658;53.080;7.428;2022-11-20T05:54:54;1.30;99.90
13186;DHT22;6658;53.080;7.428;2022-11-20T05:57:20;1.30;99.90
13186;DHT22;6658;53.080;7.428;2022-11-20T05:59:46;1.30;99.90
13186;DHT22;6658;53.080;7.428;2022-11-20T06:02:11;1.30;99.90
13186;DHT22;6658;53.080;7.428;2022-11-20T06:04:37;1.30;99.90
13186;DHT22;6658;53.080;7.428;2022-11-20T06:07:05;1.30;99.90
13186;DHT22;6658;53.080;7.428;2022-11-20T06:09:31;1.30;99.90
13186;DHT22;6658;53.080;7.428;2022-11-20T06:11:57;1.30;99.90
13186;DHT22;6658;53.080;7.428;2022-11-20T06:14:23;1.30;99.90
13186;DHT22;6658;53.080;7.428;2022-11-20T06:16:48;1.30;99.90
13186;DHT22;6658;53.080;7.428;2022-11-20T06:19:14;1.30;99.90
13186;DHT22;6658;53.080;7.428;2022-11-20T06:21:40;1.30;99.90
13186;DHT22;6658;53.080;7.428;2022-11-20T06:24:06;1.30;99.90
13186;DHT22;6658;53.080;7.428;2022-11-20T06:26:34;1.30;99.90
13186;DHT22;6658;53.080;7.428;2022-11-20T06:28:59;1.30;99.90
13186;DHT22;6658;53.080;7.428;2022-11-20T06:31:26;1.30;99.90
13186;DHT22;6658;53.080;7.428;2022-11-20T06:33:52;1.30;99.90
13186;DHT22;6658;53.080;7.428;2022-11-20T06:36:20;1.30;99.90
13186;DHT22;6658;53.080;7.428;2022-11-20T06:38:46;1.40;99.90
13186;DHT22;6658;53.080;7.428;2022-11-20T06:41:15;1.40;99.90
13186;DHT22;6658;53.080;7.428;2022-11-20T06:43:41;1.40;99.90
13186;DHT22;6658;53.080;7.428;2022-11-20T06:46:08;1.40;99.90
13186;DHT22;6658;53.080;7.428;2022-11-20T06:48:34;1.40;99.90
13186;DHT22;6658;53.080;7.428;2022-11-20T06:51:00;1.30;99.90
13186;DHT22;6658;53.080;7.428;2022-11-20T06:53:27;1.30;99.90
13186;DHT22;6658;53.080;7.428;2022-11-20T06:55:55;1.40;99.90
13186;DHT22;6658;53.080;7.428;2022-11-20T06:58:21;1.30;99.90
13186;DHT22;6658;53.080;7.428;2022-11-20T07:00:47;1.30;99.90
13186;DHT22;6658;53.080;7.428;2022-11-20T07:03:13;1.30;99.90
13186;DHT22;6658;53.080;7.428;2022-11-20T07:05:39;1.30;99.90
13186;DHT22;6658;53.080;7.428;2022-11-20T07:08:05;1.40;99.90
13186;DHT22;6658;53.080;7.428;2022-11-20T07:10:32;1.30;99.90
13186;DHT22;6658;53.080;7.428;2022-11-20T07:12:57;1.30;99.90
13186;DHT22;6658;53.080;7.428;2022-11-20T07:15:24;1.30;99.90
13186;DHT22;6658;53.080;7.428;2022-11-20T07:17:51;1.30;99.90
13186;DHT22;6658;53.080;7.428;2022-11-20T07:20:16;1.30;99.90
13186;DHT22;6658;53.080;7.428;2022-11-20T07:22:42;1.30;99.90
13186;DHT22;6658;53.080;7.428;2022-11-20T07:25:09;1.40;99.90
13186;DHT22;6658;53.080;7.428;2022-11-20T07:27:35;1.30;99.90
13186;DHT22;6658;53.080;7.428;2022-11-20T07:30:02;1.40;99.90
13186;DHT22;6658;53.080;7.428;2022-11-20T07:32:28;1.40;99.90
13186;DHT22;6658;53.080;7.428;2022-11-20T07:34:53;1.40;99.90
13186;DHT22;6658;53.080;7.428;2022-11-20T07:37:19;1.40;99.90
13186;DHT22;6658;53.080;7.428;2022-11-20T07:39:45;1.50;99.90
13186;DHT22;6658;53.080;7.428;2022-11-20T07:42:10;1.50;99.90
13186;DHT22;6658;53.080;7.428;2022-11-20T07:44:38;1.50;99.90
13186;DHT22;6658;53.080;7.428;2022-11-20T07:47:04;1.50;99.90
13186;DHT22;6658;53.080;7.428;2022-11-20T07:49:30;1.60;99.90
13186;DHT22;6658;53.080;7.428;2022-11-20T07:51:55;1.60;99.90
13186;DHT22;6658;53.080;7.428;2022-11-20T07:54:21;1.60;99.90
13186;DHT22;6658;53.080;7.428;2022-11-20T07:56:48;1.70;99.90
13186;DHT22;6658;53.080;7.428;2022-11-20T07:59:14;1.70;99.90
13186;DHT22;6658;53.080;7.428;2022-11-20T08:01:41;1.70;99.90
13186;DHT22;6658;53.080;7.428;2022-11-20T08:04:07;1.80;99.90
13186;DHT22;6658;53.080;7.428;2022-11-20T08:06:32;1.80;99.90
13186;DHT22;6658;53.080;7.428;2022-11-20T08:08:58;1.80;99.90
13186;DHT22;6658;53.080;7.428;2022-11-20T08:11:24;1.80;99.90
13186;DHT22;6658;53.080;7.428;2022-11-20T08:14:08;1.80;99.90
13186;DHT22;6658;53.080;7.428;2022-11-20T08:16:37;1.80;99.90
13186;DHT22;6658;53.080;7.428;2022-11-20T08:19:03;1.80;99.90
13186;DHT22;6658;53.080;7.428;2022-11-20T08:21:30;1.90;99.90
13186;DHT22;6658;53.080;7.428;2022-11-20T08:23:57;1.90;99.90
13186;DHT22;6658;53.080;7.428;2022-11-20T08:26:24;2.00;99.90
13186;DHT22;6658;53.080;7.428;2022-11-20T08:28:53;2.00;99.90
13186;DHT22;6658;53.080;7.428;2022-11-20T08:31:20;2.00;99.90
13186;DHT22;6658;53.080;7.428;2022-11-20T08:33:45;2.10;99.90
13186;DHT22;6658;53.080;7.428;2022-11-20T08:36:11;2.20;99.90
13186;DHT22;6658;53.080;7.428;2022-11-20T08:38:37;2.20;99.90
13186;DHT22;6658;53.080;7.428;2022-11-20T08:41:03;2.10;99.90
13186;DHT22;6658;53.080;7.428;2022-11-20T08:43:48;2.20;99.90
13186;DHT22;6658;53.080;7.428;2022-11-20T08:46:14;2.20;99.90
13186;DHT22;6658;53.080;7.428;2022-11-20T08:48:39;2.20;99.90
13186;DHT22;6658;53.080;7.428;2022-11-20T08:51:05;2.20;99.90
13186;DHT22;6658;53.080;7.428;2022-11-20T08:53:31;2.10;99.90
13186;DHT22;6658;53.080;7.428;2022-11-20T08:55:57;2.20;99.90
13186;DHT22;6658;53.080;7.428;2022-11-20T08:58:23;2.10;99.90
13186;DHT22;6658;53.080;7.428;2022-11-20T09:00:49;2.10;99.90
13186;DHT22;6658;53.080;7.428;2022-11-20T09:03:15;2.10;99.90
13186;DHT22;6658;53.080;7.428;2022-11-20T09:05:41;2.20;99.90
13186;DHT22;6658;53.080;7.428;2022-11-20T09:08:06;2.20;99.90
13186;DHT22;6658;53.080;7.428;2022-11-20T09:10:32;2.20;99.90
13186;DHT22;6658;53.080;7.428;2022-11-20T09:12:58;2.20;99.90
13186;DHT22;6658;53.080;7.428;2022-11-20T09:15:25;2.10;99.90
13186;DHT22;6658;53.080;7.428;2022-11-20T09:18:01;2.20;99.90
13186;DHT22;6658;53.080;7.428;2022-11-20T09:20:28;2.10;99.90
13186;DHT22;6658;53.080;7.428;2022-11-20T09:22:54;2.20;99.90
13186;DHT22;6658;53.080;7.428;2022-11-20T09:25:20;2.20;99.90
13186;DHT22;6658;53.080;7.428;2022-11-20T09:27:56;2.20;99.90
13186;DHT22;6658;53.080;7.428;2022-11-20T09:30:22;2.30;99.90
13186;DHT22;6658;53.080;7.428;2022-11-20T09:32:47;2.30;99.90
13186;DHT22;6658;53.080;7.428;2022-11-20T09:35:13;2.30;99.90
13186;DHT22;6658;53.080;7.428;2022-11-20T09:37:39;2.40;99.90
13186;DHT22;6658;53.080;7.428;2022-11-20T09:40:16;2.50;99.90
13186;DHT22;6658;53.080;7.428;2022-11-20T09:50:38;2.50;99.90
13186;DHT22;6658;53.080;7.428;2022-11-20T09:53:23;2.50;99.90
13186;DHT22;6658;53.080;7.428;2022-11-20T09:55:51;2.50;99.90
13186;DHT22;6658;53.080;7.428;2022-11-20T09:58:34;2.50;99.90
13186;DHT22;6658;53.080;7.428;2022-11-20T10:01:10;2.50;99.90
13186;DHT22;6658;53.080;7.428;2022-11-20T10:06:21;2.60;99.90
13186;DHT22;6658;53.080;7.428;2022-11-20T10:08:59;2.60;99.90
13186;DHT22;6658;53.080;7.428;2022-11-20T10:25:45;3.00;99.90
13186;DHT22;6658;53.080;7.428;2022-11-20T10:31:09;3.10;99.90
13186;DHT22;6658;53.080;7.428;2022-11-20T10:33:40;3.20;99.90
13186;DHT22;6658;53.080;7.428;2022-11-20T10:36:28;3.20;99.90
13186;DHT22;6658;53.080;7.428;2022-11-20T10:39:00;3.20;99.90
13186;DHT22;6658;53.080;7.428;2022-11-20T10:41:41;3.20;99.90
13186;DHT22;6658;53.080;7.428;2022-11-20T10:44:15;3.20;99.90
13186;DHT22;6658;53.080;7.428;2022-11-20T10:47:20;3.20;99.90
13186;DHT22;6658;53.080;7.428;2022-11-20T10:49:53;3.30;99.90
13186;DHT22;6658;53.080;7.428;2022-11-20T10:52:52;3.30;99.90
13186;DHT22;6658;53.080;7.428;2022-11-20T10:55:33;3.30;99.90
13186;DHT22;6658;53.080;7.428;2022-11-20T11:00:46;3.30;99.90
13186;DHT22;6658;53.080;7.428;2022-11-20T11:03:24;3.30;99.90
13186;DHT22;6658;53.080;7.428;2022-11-20T11:08:38;3.40;99.90
13186;DHT22;6658;53.080;7.428;2022-11-20T11:11:28;3.40;99.90
13186;DHT22;6658;53.080;7.428;2022-11-20T11:14:08;3.40;99.90
13186;DHT22;6658;53.080;7.428;2022-11-20T11:16:33;3.50;99.90
13186;DHT22;6658;53.080;7.428;2022-11-20T11:19:12;3.60;99.90
13186;DHT22;6658;53.080;7.428;2022-11-20T11:21:38;3.70;99.90
13186;DHT22;6658;53.080;7.428;2022-11-20T11:24:31;3.80;99.90
13186;DHT22;6658;53.080;7.428;2022-11-20T11:27:02;3.90;99.90
13186;DHT22;6658;53.080;7.428;2022-11-20T11:29:32;3.90;99.90
13186;DHT22;6658;53.080;7.428;2022-11-20T11:32:38;4.00;99.90
13186;DHT22;6658;53.080;7.428;2022-11-20T11:35:02;4.10;99.90
13186;DHT22;6658;53.080;7.428;2022-11-20T11:37:33;4.10;99.90
13186;DHT22;6658;53.080;7.428;2022-11-20T11:40:00;4.20;99.90
13186;DHT22;6658;53.080;7.428;2022-11-20T11:42:28;4.20;99.90
13186;DHT22;6658;53.080;7.428;2022-11-20T11:44:58;4.30;99.90
13186;DHT22;6658;53.080;7.428;2022-11-20T11:47:44;4.30;99.90
13186;DHT22;6658;53.080;7.428;2022-11-20T11:50:15;4.30;99.90
13186;DHT22;6658;53.080;7.428;2022-11-20T11:58:17;4.60;99.90
13186;DHT22;6658;53.080;7.428;2022-11-20T12:01:01;4.60;99.90
13186;DHT22;6658;53.080;7.428;2022-11-20T12:03:35;4.80;99.90
13186;DHT22;6658;53.080;7.428;2022-11-20T12:06:14;4.70;99.90
13186;DHT22;6658;53.080;7.428;2022-11-20T12:08:56;4.70;99.90
13186;DHT22;6658;53.080;7.428;2022-11-20T12:14:38;4.80;99.90
13186;DHT22;6658;53.080;7.428;2022-11-20T12:17:07;4.90;99.90
13186;DHT22;6658;53.080;7.428;2022-11-20T12:19:34;4.90;99.90
13186;DHT22;6658;53.080;7.428;2022-11-20T12:25:01;4.90;99.90
13186;DHT22;6658;53.080;7.428;2022-11-20T12:30:20;5.00;99.90
13186;DHT22;6658;53.080;7.428;2022-11-20T12:52:53;5.00;99.90
13186;DHT22;6658;53.080;7.428;2022-11-20T12:58:12;4.80;99.90
13186;DHT22;6658;53.080;7.428;2022-11-20T13:00:53;4.60;99.90
13186;DHT22;6658;53.080;7.428;2022-11-20T13:03:46;4.50;99.90
13186;DHT22;6658;53.080;7.428;2022-11-20T13:06:18;4.40;99.90
13186;DHT22;6658;53.080;7.428;2022-11-20T13:09:04;4.40;99.90
13186;DHT22;6658;53.080;7.428;2022-11-20T13:11:40;4.50;99.90
13186;DHT22;6658;53.080;7.428;2022-11-20T13:14:16;4.40;99.90
13186;DHT22;6658;53.080;7.428;2022-11-20T13:17:00;4.40;99.90
13186;DHT22;6658;53.080;7.428;2022-11-20T13:19:27;4.30;99.90
13186;DHT22;6658;53.080;7.428;2022-11-20T13:21:56;4.20;99.90
13186;DHT22;6658;53.080;7.428;2022-11-20T13:24:24;4.20;99.90
13186;DHT22;6658;53.080;7.428;2022-11-20T13:27:18;4.30;99.90
13186;DHT22;6658;53.080;7.428;2022-11-20T13:29:57;4.40;99.90
13186;DHT22;6658;53.080;7.428;2022-11-20T13:32:23;4.50;99.90
13186;DHT22;6658;53.080;7.428;2022-11-20T13:37:35;4.50;99.90
13186;DHT22;6658;53.080;7.428;2022-11-20T13:42:31;4.40;99.90
13186;DHT22;6658;53.080;7.428;2022-11-20T13:45:25;4.40;99.90
13186;DHT22;6658;53.080;7.428;2022-11-20T13:47:53;4.30;99.90
13186;DHT22;6658;53.080;7.428;2022-11-20T13:50:27;4.20;99.90
13186;DHT22;6658;53.080;7.428;2022-11-20T13:58:29;3.90;99.90
13186;DHT22;6658;53.080;7.428;2022-11-20T14:03:34;3.60;99.90
13186;DHT22;6658;53.080;7.428;2022-11-20T14:06:05;3.50;99.90
13186;DHT22;6658;53.080;7.428;2022-11-20T14:08:40;3.40;99.90
13186;DHT22;6658;53.080;7.428;2022-11-20T14:11:30;3.40;99.90
13186;DHT22;6658;53.080;7.428;2022-11-20T14:14:04;3.30;99.90
13186;DHT22;6658;53.080;7.428;2022-11-20T14:16:38;3.30;99.90
13186;DHT22;6658;53.080;7.428;2022-11-20T14:21:51;3.30;99.90
13186;DHT22;6658;53.080;7.428;2022-11-20T14:24:24;3.20;99.90
13186;DHT22;6658;53.080;7.428;2022-11-20T14:26:51;3.20;99.90
13186;DHT22;6658;53.080;7.428;2022-11-20T14:29:26;3.20;99.90
13186;DHT22;6658;53.080;7.428;2022-11-20T14:31:54;3.10;99.90
13186;DHT22;6658;53.080;7.428;2022-11-20T14:34:29;3.10;99.90
13186;DHT22;6658;53.080;7.428;2022-11-20T14:37:04;3.10;99.90
13186;DHT22;6658;53.080;7.428;2022-11-20T14:39:35;3.10;99.90
13186;DHT22;6658;53.080;7.428;2022-11-20T14:42:03;3.10;99.90
13186;DHT22;6658;53.080;7.428;2022-11-20T14:44:33;3.10;99.90
13186;DHT22;6658;53.080;7.428;2022-11-20T14:47:01;3.10;99.90
13186;DHT22;6658;53.080;7.428;2022-11-20T14:49:30;3.10;99.90
13186;DHT22;6658;53.080;7.428;2022-11-20T14:52:21;3.10;99.90
13186;DHT22;6658;53.080;7.428;2022-11-20T14:54:54;3.10;99.90
13186;DHT22;6658;53.080;7.428;2022-11-20T14:57:29;3.00;99.90
13186;DHT22;6658;53.080;7.428;2022-11-20T15:02:32;3.00;99.90
13186;DHT22;6658;53.080;7.428;2022-11-20T15:04:59;2.90;99.90
13186;DHT22;6658;53.080;7.428;2022-11-20T15:07:29;2.90;99.90
13186;DHT22;6658;53.080;7.428;2022-11-20T15:10:03;2.80;99.90
13186;DHT22;6658;53.080;7.428;2022-11-20T15:12:31;2.80;99.90
13186;DHT22;6658;53.080;7.428;2022-11-20T15:14:58;2.70;99.90
13186;DHT22;6658;53.080;7.428;2022-11-20T15:17:24;2.70;99.90
13186;DHT22;6658;53.080;7.428;2022-11-20T15:19:51;2.60;99.90
13186;DHT22;6658;53.080;7.428;2022-11-20T15:22:16;2.60;99.90
13186;DHT22;6658;53.080;7.428;2022-11-20T15:24:42;2.50;99.90
13186;DHT22;6658;53.080;7.428;2022-11-20T15:27:09;2.50;99.90
13186;DHT22;6658;53.080;7.428;2022-11-20T15:29:35;2.40;99.90
13186;DHT22;6658;53.080;7.428;2022-11-20T15:32:00;2.40;99.90
13186;DHT22;6658;53.080;7.428;2022-11-20T15:34:27;2.30;99.90
13186;DHT22;6658;53.080;7.428;2022-11-20T15:36:52;2.30;99.90
13186;DHT22;6658;53.080;7.428;2022-11-20T15:39:20;2.30;99.90
13186;DHT22;6658;53.080;7.428;2022-11-20T15:41:45;2.20;99.90
13186;DHT22;6658;53.080;7.428;2022-11-20T15:44:11;2.20;99.90
13186;DHT22;6658;53.080;7.428;2022-11-20T15:46:39;2.20;99.90
13186;DHT22;6658;53.080;7.428;2022-11-20T15:49:13;2.20;99.90
13186;DHT22;6658;53.080;7.428;2022-11-20T15:51:42;2.20;99.90
13186;DHT22;6658;53.080;7.428;2022-11-20T15:54:12;2.20;99.90
13186;DHT22;6658;53.080;7.428;2022-11-20T15:56:38;2.10;99.90
13186;DHT22;6658;53.080;7.428;2022-11-20T15:59:04;2.10;99.90
13186;DHT22;6658;53.080;7.428;2022-11-20T16:01:30;2.10;99.90
13186;DHT22;6658;53.080;7.428;2022-11-20T16:03:56;2.10;99.90
13186;DHT22;6658;53.080;7.428;2022-11-20T16:06:21;2.10;99.90
13186;DHT22;6658;53.080;7.428;2022-11-20T16:08:47;2.00;99.90
13186;DHT22;6658;53.080;7.428;2022-11-20T16:11:14;2.00;99.90
13186;DHT22;6658;53.080;7.428;2022-11-20T16:13:41;1.90;99.90
13186;DHT22;6658;53.080;7.428;2022-11-20T16:16:29;1.90;99.90
13186;DHT22;6658;53.080;7.428;2022-11-20T16:18:57;1.90;99.90
13186;DHT22;6658;53.080;7.428;2022-11-20T16:21:22;1.90;99.90
13186;DHT22;6658;53.080;7.428;2022-11-20T16:24:00;1.80;99.90
13186;DHT22;6658;53.080;7.428;2022-11-20T16:26:29;1.80;99.90
13186;DHT22;6658;53.080;7.428;2022-11-20T16:28:55;1.70;99.90
13186;DHT22;6658;53.080;7.428;2022-11-20T16:31:21;1.70;99.90
13186;DHT22;6658;53.080;7.428;2022-11-20T16:33:51;1.60;99.90
13186;DHT22;6658;53.080;7.428;2022-11-20T16:36:17;1.50;99.90
13186;DHT22;6658;53.080;7.428;2022-11-20T16:38:43;1.40;99.90
13186;DHT22;6658;53.080;7.428;2022-11-20T16:41:09;1.40;99.90
13186;DHT22;6658;53.080;7.428;2022-11-20T16:43:46;1.30;99.90
13186;DHT22;6658;53.080;7.428;2022-11-20T16:46:13;1.30;99.90
13186;DHT22;6658;53.080;7.428;2022-11-20T16:48:39;1.30;99.90
13186;DHT22;6658;53.080;7.428;2022-11-20T16:51:08;1.30;99.90
13186;DHT22;6658;53.080;7.428;2022-11-20T16:53:34;1.40;99.90
13186;DHT22;6658;53.080;7.428;2022-11-20T16:56:14;1.40;99.90
13186;DHT22;6658;53.080;7.428;2022-11-20T16:58:44;1.40;99.90
13186;DHT22;6658;53.080;7.428;2022-11-20T17:01:13;1.40;99.90
13186;DHT22;6658;53.080;7.428;2022-11-20T17:03:40;1.40;99.90
13186;DHT22;6658;53.080;7.428;2022-11-20T17:06:16;1.40;99.90
13186;DHT22;6658;53.080;7.428;2022-11-20T17:08:43;1.50;99.90
13186;DHT22;6658;53.080;7.428;2022-11-20T17:11:11;1.40;99.90
13186;DHT22;6658;53.080;7.428;2022-11-20T17:13:38;1.50;99.90
13186;DHT22;6658;53.080;7.428;2022-11-20T17:16:06;1.50;99.90
13186;DHT22;6658;53.080;7.428;2022-11-20T17:18:32;1.60;99.90
13186;DHT22;6658;53.080;7.428;2022-11-20T17:20:59;1.50;99.90
13186;DHT22;6658;53.080;7.428;2022-11-20T17:23:30;1.50;99.90
13186;DHT22;6658;53.080;7.428;2022-11-20T17:26:02;1.50;99.90
13186;DHT22;6658;53.080;7.428;2022-11-20T17:28:28;1.50;99.90
13186;DHT22;6658;53.080;7.428;2022-11-20T17:31:02;1.50;99.90
13186;DHT22;6658;53.080;7.428;2022-11-20T17:33:28;1.40;99.90
13186;DHT22;6658;53.080;7.428;2022-11-20T17:35:54;1.40;99.90
13186;DHT22;6658;53.080;7.428;2022-11-20T17:38:20;1.40;99.90
13186;DHT22;6658;53.080;7.428;2022-11-20T17:40:46;1.50;99.90
13186;DHT22;6658;53.080;7.428;2022-11-20T17:43:12;1.50;99.90